sensor_id;sensor_type;location;lat;lon;timestamp;pressure;altitude;pressure_sealevel;temperature;humidity
64683;BME280;51107;47.652;19.016;2023-02-03T00:01:30;100513.84;;;1.16;88.21
64683;BME280;51107;47.652;19.016;2023-02-03T00:03:59;100515.94;;;1.08;87.19
64683;BME280;51107;47.652;19.016;2023-02-03T00:06:27;100518.00;;;0.99;88.65
64683;BME280;51107;47.652;19.016;2023-02-03T00:08:56;100520.50;;;1.01;88.71
64683;BME280;51107;47.652;19.016;2023-02-03T00:11:28;100518.19;;;1.14;87.68
64683;BME280;51107;47.652;19.016;2023-02-03T00:13:57;100532.56;;;0.99;88.30
64683;BME280;51107;47.652;19.016;2023-02-03T00:16:25;100531.03;;;0.76;89.49
64683;BME280;51107;47.652;19.016;2023-02-03T00:18:54;100530.34;;;0.91;89.17
64683;BME280;51107;47.652;19.016;2023-02-03T00:21:22;100528.69;;;0.90;89.00
64683;BME280;51107;47.652;19.016;2023-02-03T00:23:52;100532.63;;;1.16;84.68
64683;BME280;51107;47.652;19.016;2023-02-03T00:26:21;100530.12;;;0.96;86.25
64683;BME280;51107;47.652;19.016;2023-02-03T00:28:51;100540.25;;;0.80;88.39
64683;BME280;51107;47.652;19.016;2023-02-03T00:31:22;100540.88;;;0.85;87.76
64683;BME280;51107;47.652;19.016;2023-02-03T00:33:55;100550.94;;;0.71;88.76
64683;BME280;51107;47.652;19.016;2023-02-03T00:36:25;100562.22;;;0.66;89.40
64683;BME280;51107;47.652;19.016;2023-02-03T00:38:54;100552.84;;;0.46;88.05
64683;BME280;51107;47.652;19.016;2023-02-03T00:41:22;100554.31;;;0.71;85.77
64683;BME280;51107;47.652;19.016;2023-02-03T00:43:55;100563.16;;;0.84;83.19
64683;BME280;51107;47.652;19.016;2023-02-03T00:46:23;100562.59;;;0.97;81.31
64683;BME280;51107;47.652;19.016;2023-02-03T00:48:51;100572.09;;;0.95;80.83
64683;BME280;51107;47.652;19.016;2023-02-03T00:51:20;100576.47;;;0.93;80.13
64683;BME280;51107;47.652;19.016;2023-02-03T00:53:48;100583.75;;;0.83;80.64
64683;BME280;51107;47.652;19.016;2023-02-03T00:56:16;100586.63;;;0.75;80.81
64683;BME280;51107;47.652;19.016;2023-02-03T00:58:45;100565.47;;;0.70;80.90
64683;BME280;51107;47.652;19.016;2023-02-03T01:01:13;100575.63;;;0.73;80.32
64683;BME280;51107;47.652;19.016;2023-02-03T01:03:42;100586.66;;;0.55;81.31
64683;BME280;51107;47.652;19.016;2023-02-03T01:06:14;100585.56;;;0.60;82.12
64683;BME280;51107;47.652;19.016;2023-02-03T01:08:43;100586.34;;;0.62;79.89
64683;BME280;51107;47.652;19.016;2023-02-03T01:11:14;100578.41;;;0.48;81.26
64683;BME280;51107;47.652;19.016;2023-02-03T01:13:44;100588.28;;;0.37;82.61
64683;BME280;51107;47.652;19.016;2023-02-03T01:16:15;100596.03;;;0.14;84.13
64683;BME280;51107;47.652;19.016;2023-02-03T01:18:44;100599.53;;;-0.09;85.17
64683;BME280;51107;47.652;19.016;2023-02-03T01:21:15;100597.88;;;0.11;86.00
64683;BME280;51107;47.652;19.016;2023-02-03T01:23:45;100595.38;;;-0.11;86.68
64683;BME280;51107;47.652;19.016;2023-02-03T01:26:16;100595.00;;;-0.02;86.68
64683;BME280;51107;47.652;19.016;2023-02-03T01:28:52;100604.59;;;-0.07;84.25
64683;BME280;51107;47.652;19.016;2023-02-03T01:31:24;100603.34;;;0.03;85.00
64683;BME280;51107;47.652;19.016;2023-02-03T01:33:53;100609.50;;;0.20;84.54
64683;BME280;51107;47.652;19.016;2023-02-03T01:36:24;100612.41;;;-0.10;85.85
64683;BME280;51107;47.652;19.016;2023-02-03T01:38:54;100601.09;;;-0.05;85.38
64683;BME280;51107;47.652;19.016;2023-02-03T01:41:26;100613.91;;;-0.27;85.64
64683;BME280;51107;47.652;19.016;2023-02-03T01:43:57;100598.97;;;-0.38;84.66
64683;BME280;51107;47.652;19.016;2023-02-03T01:46:39;100605.97;;;-0.41;84.59
64683;BME280;51107;47.652;19.016;2023-02-03T01:49:21;100609.87;;;-0.32;83.44
64683;BME280;51107;47.652;19.016;2023-02-03T01:51:51;100607.97;;;-0.27;83.17
64683;BME280;51107;47.652;19.016;2023-02-03T01:54:29;100615.66;;;-0.27;82.58
64683;BME280;51107;47.652;19.016;2023-02-03T01:57:06;100613.56;;;-0.18;82.86
64683;BME280;51107;47.652;19.016;2023-02-03T01:59:37;100620.88;;;-0.30;83.26
64683;BME280;51107;47.652;19.016;2023-02-03T02:02:07;100624.41;;;-0.33;83.16
64683;BME280;51107;47.652;19.016;2023-02-03T02:07:35;100621.34;;;-0.43;82.87
64683;BME280;51107;47.652;19.016;2023-02-03T02:10:05;100610.94;;;-0.38;83.96
64683;BME280;51107;47.652;19.016;2023-02-03T02:12:34;100615.75;;;-0.30;82.40
64683;BME280;51107;47.652;19.016;2023-02-03T02:15:03;100613.78;;;-0.24;83.74
64683;BME280;51107;47.652;19.016;2023-02-03T02:17:51;100620.72;;;-0.26;82.85
64683;BME280;51107;47.652;19.016;2023-02-03T02:20:58;100624.81;;;-0.44;82.14
64683;BME280;51107;47.652;19.016;2023-02-03T02:26:36;100617.78;;;-0.39;81.04
64683;BME280;51107;47.652;19.016;2023-02-03T02:29:17;100625.66;;;-0.43;81.03
64683;BME280;51107;47.652;19.016;2023-02-03T02:32:17;100626.44;;;-0.41;80.99
64683;BME280;51107;47.652;19.016;2023-02-03T02:35:04;100612.12;;;-0.47;81.15
64683;BME280;51107;47.652;19.016;2023-02-03T02:45:53;100607.91;;;-0.48;80.90
64683;BME280;51107;47.652;19.016;2023-02-03T02:48:50;100631.00;;;-0.49;81.64
64683;BME280;51107;47.652;19.016;2023-02-03T02:51:21;100620.31;;;-0.37;81.36
64683;BME280;51107;47.652;19.016;2023-02-03T02:53:56;100630.41;;;-0.12;81.71
64683;BME280;51107;47.652;19.016;2023-02-03T02:56:28;100637.56;;;-0.20;82.24
64683;BME280;51107;47.652;19.016;2023-02-03T02:58:59;100649.34;;;-0.16;81.78
64683;BME280;51107;47.652;19.016;2023-02-03T03:01:30;100648.47;;;-0.15;81.67
64683;BME280;51107;47.652;19.016;2023-02-03T03:04:02;100646.91;;;-0.19;81.63
64683;BME280;51107;47.652;19.016;2023-02-03T03:06:54;100644.44;;;-0.22;82.96
64683;BME280;51107;47.652;19.016;2023-02-03T03:09:39;100629.87;;;-0.42;83.52
64683;BME280;51107;47.652;19.016;2023-02-03T03:12:23;100632.97;;;-0.34;82.93
64683;BME280;51107;47.652;19.016;2023-02-03T03:14:56;100645.44;;;-0.25;83.48
64683;BME280;51107;47.652;19.016;2023-02-03T03:17:32;100647.41;;;-0.31;80.81
64683;BME280;51107;47.652;19.016;2023-02-03T03:20:09;100632.44;;;-0.20;81.72
64683;BME280;51107;47.652;19.016;2023-02-03T03:23:06;100639.53;;;-0.27;82.10
64683;BME280;51107;47.652;19.016;2023-02-03T03:25:42;100624.44;;;-0.35;83.70
64683;BME280;51107;47.652;19.016;2023-02-03T03:28:21;100634.38;;;-0.05;82.16
64683;BME280;51107;47.652;19.016;2023-02-03T03:30:52;100635.66;;;-0.15;81.50
64683;BME280;51107;47.652;19.016;2023-02-03T03:33:21;100629.56;;;-0.35;80.40
64683;BME280;51107;47.652;19.016;2023-02-03T03:38:41;100639.03;;;-0.37;81.08
64683;BME280;51107;47.652;19.016;2023-02-03T03:41:20;100637.78;;;-0.48;79.82
64683;BME280;51107;47.652;19.016;2023-02-03T03:43:55;100628.62;;;-0.32;81.25
64683;BME280;51107;47.652;19.016;2023-02-03T03:46:30;100635.22;;;-0.26;80.82
64683;BME280;51107;47.652;19.016;2023-02-03T03:49:02;100633.97;;;-0.16;79.68
64683;BME280;51107;47.652;19.016;2023-02-03T03:51:42;100638.44;;;-0.21;78.68
64683;BME280;51107;47.652;19.016;2023-02-03T03:54:19;100628.84;;;-0.16;78.50
64683;BME280;51107;47.652;19.016;2023-02-03T03:59:21;100631.16;;;-0.10;79.98
64683;BME280;51107;47.652;19.016;2023-02-03T04:01:52;100626.53;;;-0.22;80.96
64683;BME280;51107;47.652;19.016;2023-02-03T04:04:23;100620.31;;;-0.37;80.99
64683;BME280;51107;47.652;19.016;2023-02-03T04:06:53;100621.38;;;-0.21;79.68
64683;BME280;51107;47.652;19.016;2023-02-03T04:09:22;100626.13;;;-0.33;81.56
64683;BME280;51107;47.652;19.016;2023-02-03T04:11:50;100626.13;;;-0.33;82.13
64683;BME280;51107;47.652;19.016;2023-02-03T04:14:34;100626.13;;;-0.33;81.78
64683;BME280;51107;47.652;19.016;2023-02-03T04:17:05;100626.84;;;-0.30;82.76
64683;BME280;51107;47.652;19.016;2023-02-03T04:19:34;100631.13;;;-0.30;81.70
64683;BME280;51107;47.652;19.016;2023-02-03T04:22:02;100628.47;;;-0.27;81.33
64683;BME280;51107;47.652;19.016;2023-02-03T04:24:31;100631.62;;;-0.21;80.29
64683;BME280;51107;47.652;19.016;2023-02-03T04:26:59;100631.22;;;-0.11;80.01
64683;BME280;51107;47.652;19.016;2023-02-03T04:29:27;100629.75;;;-0.17;80.34
64683;BME280;51107;47.652;19.016;2023-02-03T04:31:55;100628.84;;;-0.16;79.22
64683;BME280;51107;47.652;19.016;2023-02-03T04:34:24;100628.25;;;-0.01;78.03
64683;BME280;51107;47.652;19.016;2023-02-03T04:36:52;100634.03;;;-0.18;79.37
64683;BME280;51107;47.652;19.016;2023-02-03T04:39:20;100637.63;;;-0.44;80.86
64683;BME280;51107;47.652;19.016;2023-02-03T04:41:50;100638.44;;;-0.21;80.57
64683;BME280;51107;47.652;19.016;2023-02-03T04:44:18;100641.88;;;-0.22;78.98
64683;BME280;51107;47.652;19.016;2023-02-03T04:46:46;100629.69;;;-0.15;76.96
64683;BME280;51107;47.652;19.016;2023-02-03T04:49:14;100637.50;;;-0.19;77.54
64683;BME280;51107;47.652;19.016;2023-02-03T04:51:44;100620.19;;;-0.34;76.01
64683;BME280;51107;47.652;19.016;2023-02-03T04:54:15;100619.91;;;-0.28;78.46
64683;BME280;51107;47.652;19.016;2023-02-03T04:56:43;100613.69;;;-0.21;74.94
64683;BME280;51107;47.652;19.016;2023-02-03T04:59:11;100611.75;;;-0.15;76.77
64683;BME280;51107;47.652;19.016;2023-02-03T05:01:40;100615.09;;;-0.13;76.94
64683;BME280;51107;47.652;19.016;2023-02-03T05:04:08;100621.91;;;-0.12;75.46
64683;BME280;51107;47.652;19.016;2023-02-03T05:06:36;100609.66;;;-0.06;77.86
64683;BME280;51107;47.652;19.016;2023-02-03T05:09:05;100618.34;;;-0.10;76.76
64683;BME280;51107;47.652;19.016;2023-02-03T05:11:33;100609.09;;;-0.35;75.97
64683;BME280;51107;47.652;19.016;2023-02-03T05:14:01;100597.88;;;-0.10;76.13
64683;BME280;51107;47.652;19.016;2023-02-03T05:16:30;100602.25;;;0.09;71.77
64683;BME280;51107;47.652;19.016;2023-02-03T05:18:59;100604.44;;;0.18;71.05
64683;BME280;51107;47.652;19.016;2023-02-03T05:21:27;100604.38;;;0.20;71.26
64683;BME280;51107;47.652;19.016;2023-02-03T05:23:56;100603.16;;;0.28;69.43
64683;BME280;51107;47.652;19.016;2023-02-03T05:26:24;100599.50;;;0.34;70.07
64683;BME280;51107;47.652;19.016;2023-02-03T05:28:52;100596.03;;;0.56;67.55
64683;BME280;51107;47.652;19.016;2023-02-03T05:31:24;100610.91;;;0.47;67.74
64683;BME280;51107;47.652;19.016;2023-02-03T05:33:52;100601.88;;;0.39;68.43
64683;BME280;51107;47.652;19.016;2023-02-03T05:36:20;100596.84;;;0.56;67.37
64683;BME280;51107;47.652;19.016;2023-02-03T05:38:49;100597.50;;;0.61;66.98
64683;BME280;51107;47.652;19.016;2023-02-03T05:41:18;100606.28;;;0.56;66.95
64683;BME280;51107;47.652;19.016;2023-02-03T05:44:05;100592.75;;;0.52;67.54
64683;BME280;51107;47.652;19.016;2023-02-03T05:46:33;100604.03;;;0.48;68.49
64683;BME280;51107;47.652;19.016;2023-02-03T05:49:01;100609.94;;;0.50;67.71
64683;BME280;51107;47.652;19.016;2023-02-03T05:51:30;100602.13;;;0.53;66.88
64683;BME280;51107;47.652;19.016;2023-02-03T05:53:58;100613.09;;;0.57;66.65
64683;BME280;51107;47.652;19.016;2023-02-03T05:56:26;100604.81;;;0.50;66.17
64683;BME280;51107;47.652;19.016;2023-02-03T05:58:55;100606.22;;;0.57;66.35
64683;BME280;51107;47.652;19.016;2023-02-03T06:01:24;100624.03;;;0.60;66.28
64683;BME280;51107;47.652;19.016;2023-02-03T06:03:52;100608.34;;;0.47;67.77
64683;BME280;51107;47.652;19.016;2023-02-03T06:06:21;100611.66;;;0.49;68.23
64683;BME280;51107;47.652;19.016;2023-02-03T06:08:49;100611.13;;;0.62;67.51
64683;BME280;51107;47.652;19.016;2023-02-03T06:11:24;100610.97;;;0.66;66.66
64683;BME280;51107;47.652;19.016;2023-02-03T06:13:53;100604.19;;;0.45;68.23
64683;BME280;51107;47.652;19.016;2023-02-03T06:16:21;100604.38;;;0.61;68.08
64683;BME280;51107;47.652;19.016;2023-02-03T06:18:53;100617.25;;;0.59;68.83
64683;BME280;51107;47.652;19.016;2023-02-03T06:21:21;100617.19;;;0.40;69.35
64683;BME280;51107;47.652;19.016;2023-02-03T06:23:50;100611.13;;;0.62;68.38
64683;BME280;51107;47.652;19.016;2023-02-03T06:26:18;100630.31;;;0.53;68.57
64683;BME280;51107;47.652;19.016;2023-02-03T06:28:47;100625.56;;;0.64;68.49
64683;BME280;51107;47.652;19.016;2023-02-03T06:31:15;100625.97;;;0.55;69.20
64683;BME280;51107;47.652;19.016;2023-02-03T06:33:44;100616.47;;;0.57;68.69
64683;BME280;51107;47.652;19.016;2023-02-03T06:36:12;100609.09;;;0.49;68.46
64683;BME280;51107;47.652;19.016;2023-02-03T06:38:40;100605.06;;;0.64;68.06
64683;BME280;51107;47.652;19.016;2023-02-03T06:41:09;100618.12;;;0.79;67.47
64683;BME280;51107;47.652;19.016;2023-02-03T06:43:37;100604.88;;;0.69;68.09
64683;BME280;51107;47.652;19.016;2023-02-03T06:46:05;100608.75;;;0.78;67.27
64683;BME280;51107;47.652;19.016;2023-02-03T06:48:34;100607.44;;;0.88;66.70
64683;BME280;51107;47.652;19.016;2023-02-03T06:51:02;100596.91;;;0.94;64.15
64683;BME280;51107;47.652;19.016;2023-02-03T06:53:31;100594.06;;;0.81;65.95
64683;BME280;51107;47.652;19.016;2023-02-03T06:55:59;100600.19;;;0.98;66.11
64683;BME280;51107;47.652;19.016;2023-02-03T06:58:29;100596.81;;;0.77;65.64
64683;BME280;51107;47.652;19.016;2023-02-03T07:00:57;100591.00;;;0.73;65.60
64683;BME280;51107;47.652;19.016;2023-02-03T07:03:26;100607.78;;;0.80;65.96
64683;BME280;51107;47.652;19.016;2023-02-03T07:05:54;100612.12;;;0.78;66.07
64683;BME280;51107;47.652;19.016;2023-02-03T07:08:22;100608.44;;;0.86;64.72
64683;BME280;51107;47.652;19.016;2023-02-03T07:10:54;100611.97;;;0.83;63.85
64683;BME280;51107;47.652;19.016;2023-02-03T07:13:22;100606.63;;;0.88;62.97
64683;BME280;51107;47.652;19.016;2023-02-03T07:15:51;100617.91;;;0.83;64.98
64683;BME280;51107;47.652;19.016;2023-02-03T07:18:20;100620.47;;;0.83;66.43
64683;BME280;51107;47.652;19.016;2023-02-03T07:21:13;100612.84;;;0.82;69.14
64683;BME280;51107;47.652;19.016;2023-02-03T07:23:42;100617.34;;;0.77;70.94
64683;BME280;51107;47.652;19.016;2023-02-03T07:26:10;100611.41;;;0.56;70.95
64683;BME280;51107;47.652;19.016;2023-02-03T07:28:38;100619.75;;;0.61;72.10
64683;BME280;51107;47.652;19.016;2023-02-03T07:31:07;100626.53;;;0.62;72.57
64683;BME280;51107;47.652;19.016;2023-02-03T07:33:37;100628.47;;;0.57;72.47
64683;BME280;51107;47.652;19.016;2023-02-03T07:36:07;100628.06;;;0.66;72.12
64683;BME280;51107;47.652;19.016;2023-02-03T07:38:35;100627.75;;;0.53;72.06
64683;BME280;51107;47.652;19.016;2023-02-03T07:41:05;100633.59;;;0.57;71.99
64683;BME280;51107;47.652;19.016;2023-02-03T07:43:34;100635.22;;;0.59;72.07
64683;BME280;51107;47.652;19.016;2023-02-03T07:46:02;100628.13;;;0.64;72.89
64683;BME280;51107;47.652;19.016;2023-02-03T07:48:31;100626.09;;;0.52;73.33
64683;BME280;51107;47.652;19.016;2023-02-03T07:50:59;100625.25;;;0.52;74.29
64683;BME280;51107;47.652;19.016;2023-02-03T07:53:27;100620.78;;;0.57;74.03
64683;BME280;51107;47.652;19.016;2023-02-03T07:56:02;100618.91;;;0.60;74.89
64683;BME280;51107;47.652;19.016;2023-02-03T07:58:31;100622.50;;;0.56;74.31
64683;BME280;51107;47.652;19.016;2023-02-03T08:01:00;100618.66;;;0.66;74.65
64683;BME280;51107;47.652;19.016;2023-02-03T08:03:28;100619.75;;;0.61;74.62
64683;BME280;51107;47.652;19.016;2023-02-03T08:05:56;100603.66;;;0.57;75.45
64683;BME280;51107;47.652;19.016;2023-02-03T08:08:24;100598.53;;;0.57;74.82
64683;BME280;51107;47.652;19.016;2023-02-03T08:10:54;100614.19;;;0.51;74.43
64683;BME280;51107;47.652;19.016;2023-02-03T08:13:23;100614.38;;;0.46;74.62
64683;BME280;51107;47.652;19.016;2023-02-03T08:15:51;100609.31;;;0.45;74.64
64683;BME280;51107;47.652;19.016;2023-02-03T08:18:19;100615.25;;;0.45;75.15
64683;BME280;51107;47.652;19.016;2023-02-03T08:20:48;100610.91;;;0.47;74.94
64683;BME280;51107;47.652;19.016;2023-02-03T08:23:16;100607.53;;;0.47;74.44
64683;BME280;51107;47.652;19.016;2023-02-03T08:25:49;100593.53;;;0.54;75.17
64683;BME280;51107;47.652;19.016;2023-02-03T08:28:18;100606.59;;;0.48;73.71
64683;BME280;51107;47.652;19.016;2023-02-03T08:30:47;100609.81;;;0.53;74.53
64683;BME280;51107;47.652;19.016;2023-02-03T08:33:16;100605.31;;;0.58;74.46
64683;BME280;51107;47.652;19.016;2023-02-03T08:35:48;100606.59;;;0.48;75.47
64683;BME280;51107;47.652;19.016;2023-02-03T08:38:17;100619.56;;;0.45;76.01
64683;BME280;51107;47.652;19.016;2023-02-03T08:40:45;100615.25;;;0.45;75.43
64683;BME280;51107;47.652;19.016;2023-02-03T08:43:14;100617.66;;;0.50;75.02
64683;BME280;51107;47.652;19.016;2023-02-03T08:45:43;100611.50;;;0.54;74.58
64683;BME280;51107;47.652;19.016;2023-02-03T08:48:11;100609.59;;;0.58;74.10
64683;BME280;51107;47.652;19.016;2023-02-03T08:50:41;100619.75;;;0.61;74.28
64683;BME280;51107;47.652;19.016;2023-02-03T08:53:10;100613.53;;;0.66;75.39
64683;BME280;51107;47.652;19.016;2023-02-03T08:55:39;100615.88;;;0.71;74.26
64683;BME280;51107;47.652;19.016;2023-02-03T08:58:07;100626.72;;;0.78;74.58
64683;BME280;51107;47.652;19.016;2023-02-03T09:00:35;100614.31;;;0.88;75.20
64683;BME280;51107;47.652;19.016;2023-02-03T09:03:04;100621.59;;;0.97;75.41
64683;BME280;51107;47.652;19.016;2023-02-03T09:05:32;100626.31;;;0.87;76.23
64683;BME280;51107;47.652;19.016;2023-02-03T09:08:01;100621.00;;;0.71;78.82
64683;BME280;51107;47.652;19.016;2023-02-03T09:10:30;100623.44;;;0.74;81.46
64683;BME280;51107;47.652;19.016;2023-02-03T09:12:58;100623.59;;;0.50;84.71
64683;BME280;51107;47.652;19.016;2023-02-03T09:15:27;100614.72;;;0.58;86.72
64683;BME280;51107;47.652;19.016;2023-02-03T09:17:55;100619.56;;;0.45;89.07
64683;BME280;51107;47.652;19.016;2023-02-03T09:20:24;100605.78;;;0.27;91.17
64683;BME280;51107;47.652;19.016;2023-02-03T09:22:54;100620.25;;;0.07;93.85
64683;BME280;51107;47.652;19.016;2023-02-03T09:25:22;100601.34;;;-0.11;96.96
64683;BME280;51107;47.652;19.016;2023-02-03T09:27:50;100617.66;;;-0.13;99.62
64683;BME280;51107;47.652;19.016;2023-02-03T09:30:18;100613.44;;;-0.14;100.00
64683;BME280;51107;47.652;19.016;2023-02-03T09:32:47;100598.19;;;-0.18;100.00
64683;BME280;51107;47.652;19.016;2023-02-03T09:35:21;100599.16;;;-0.20;100.00
64683;BME280;51107;47.652;19.016;2023-02-03T09:37:50;100594.62;;;-0.13;100.00
64683;BME280;51107;47.652;19.016;2023-02-03T09:40:22;100594.22;;;-0.25;100.00
64683;BME280;51107;47.652;19.016;2023-02-03T09:45:28;100592.59;;;-0.27;100.00
64683;BME280;51107;47.652;19.016;2023-02-03T09:48:11;100592.78;;;-0.32;100.00
64683;BME280;51107;47.652;19.016;2023-02-03T09:50:42;100594.62;;;-0.36;100.00
64683;BME280;51107;47.652;19.016;2023-02-03T09:53:27;100585.28;;;-0.37;100.00
64683;BME280;51107;47.652;19.016;2023-02-03T09:55:58;100582.78;;;-0.38;100.00
64683;BME280;51107;47.652;19.016;2023-02-03T09:58:31;100581.72;;;-0.32;100.00
64683;BME280;51107;47.652;19.016;2023-02-03T10:01:02;100576.28;;;-0.25;100.00
64683;BME280;51107;47.652;19.016;2023-02-03T10:11:45;100542.47;;;-0.33;100.00
64683;BME280;51107;47.652;19.016;2023-02-03T10:17:00;100533.44;;;-0.21;100.00
64683;BME280;51107;47.652;19.016;2023-02-03T10:19:47;100525.13;;;-0.26;100.00
64683;BME280;51107;47.652;19.016;2023-02-03T10:22:23;100517.69;;;-0.32;100.00
64683;BME280;51107;47.652;19.016;2023-02-03T10:25:19;100505.56;;;-0.27;100.00
64683;BME280;51107;47.652;19.016;2023-02-03T10:27:56;100504.41;;;-0.20;100.00
64683;BME280;51107;47.652;19.016;2023-02-03T10:30:30;100485.06;;;-0.27;100.00
64683;BME280;51107;47.652;19.016;2023-02-03T10:33:12;100490.19;;;-0.27;100.00
64683;BME280;51107;47.652;19.016;2023-02-03T10:35:51;100477.91;;;-0.19;100.00
64683;BME280;51107;47.652;19.016;2023-02-03T10:38:50;100477.03;;;-0.20;100.00
64683;BME280;51107;47.652;19.016;2023-02-03T10:41:23;100473.66;;;-0.20;100.00
64683;BME280;51107;47.652;19.016;2023-02-03T10:43:52;100461.94;;;-0.26;100.00
64683;BME280;51107;47.652;19.016;2023-02-03T10:46:28;100465.34;;;-0.25;100.00
64683;BME280;51107;47.652;19.016;2023-02-03T10:48:57;100455.75;;;-0.20;100.00
64683;BME280;51107;47.652;19.016;2023-02-03T10:51:35;100459.97;;;-0.19;100.00
64683;BME280;51107;47.652;19.016;2023-02-03T10:54:04;100447.16;;;-0.19;100.00
64683;BME280;51107;47.652;19.016;2023-02-03T10:56:36;100450.69;;;-0.22;100.00
64683;BME280;51107;47.652;19.016;2023-02-03T10:59:05;100441.13;;;-0.18;100.00
64683;BME280;51107;47.652;19.016;2023-02-03T11:01:48;100437.81;;;-0.20;100.00
64683;BME280;51107;47.652;19.016;2023-02-03T11:04:31;100433.06;;;-0.09;100.00
64683;BME280;51107;47.652;19.016;2023-02-03T11:07:06;100424.88;;;-0.17;100.00
64683;BME280;51107;47.652;19.016;2023-02-03T11:09:36;100414.97;;;-0.25;100.00
64683;BME280;51107;47.652;19.016;2023-02-03T11:12:07;100410.91;;;-0.30;100.00
64683;BME280;51107;47.652;19.016;2023-02-03T11:14:42;100392.19;;;-0.31;100.00
64683;BME280;51107;47.652;19.016;2023-02-03T11:17:22;100392.13;;;-0.29;100.00
64683;BME280;51107;47.652;19.016;2023-02-03T11:19:52;100394.81;;;-0.32;100.00
64683;BME280;51107;47.652;19.016;2023-02-03T11:22:27;100371.91;;;-0.36;100.00
64683;BME280;51107;47.652;19.016;2023-02-03T11:24:57;100367.41;;;-0.30;100.00
64683;BME280;51107;47.652;19.016;2023-02-03T11:27:28;100361.31;;;-0.28;100.00
64683;BME280;51107;47.652;19.016;2023-02-03T11:32:43;100340.09;;;-0.30;100.00
64683;BME280;51107;47.652;19.016;2023-02-03T11:37:47;100338.50;;;-0.13;100.00
64683;BME280;51107;47.652;19.016;2023-02-03T11:50:34;100301.22;;;-0.19;100.00
64683;BME280;51107;47.652;19.016;2023-02-03T11:54:14;100305.22;;;-0.13;100.00
64683;BME280;51107;47.652;19.016;2023-02-03T11:56:40;100291.78;;;-0.19;100.00
64683;BME280;51107;47.652;19.016;2023-02-03T12:02:41;100272.34;;;-0.23;100.00
64683;BME280;51107;47.652;19.016;2023-02-03T12:13:55;100247.84;;;-0.28;100.00
64683;BME280;51107;47.652;19.016;2023-02-03T12:19:21;100221.91;;;-0.21;100.00
64683;BME280;51107;47.652;19.016;2023-02-03T12:22:25;100214.16;;;-0.19;100.00
64683;BME280;51107;47.652;19.016;2023-02-03T12:25:02;100213.09;;;-0.15;100.00
64683;BME280;51107;47.652;19.016;2023-02-03T12:27:45;100208.06;;;-0.16;100.00
64683;BME280;51107;47.652;19.016;2023-02-03T12:30:40;100188.88;;;-0.08;100.00
64683;BME280;51107;47.652;19.016;2023-02-03T12:33:23;100175.25;;;-0.08;100.00
64683;BME280;51107;47.652;19.016;2023-02-03T12:39:04;100150.91;;;0.01;100.00
64683;BME280;51107;47.652;19.016;2023-02-03T12:41:36;100150.47;;;0.10;100.00
64683;BME280;51107;47.652;19.016;2023-02-03T12:44:23;100135.03;;;0.11;100.00
64683;BME280;51107;47.652;19.016;2023-02-03T12:47:04;100140.06;;;0.13;100.00
64683;BME280;51107;47.652;19.016;2023-02-03T12:49:43;100130.62;;;0.13;100.00
64683;BME280;51107;47.652;19.016;2023-02-03T13:02:41;100091.22;;;0.16;100.00
64683;BME280;51107;47.652;19.016;2023-02-03T13:17:49;100067.87;;;0.05;100.00
64683;BME280;51107;47.652;19.016;2023-02-03T13:20:25;100055.97;;;0.04;100.00
64683;BME280;51107;47.652;19.016;2023-02-03T13:22:54;100042.28;;;0.05;100.00
64683;BME280;51107;47.652;19.016;2023-02-03T13:25:38;100044.06;;;0.03;100.00
64683;BME280;51107;47.652;19.016;2023-02-03T13:39:29;100021.78;;;0.05;100.00
64683;BME280;51107;47.652;19.016;2023-02-03T13:44:48;100001.53;;;0.00;100.00
64683;BME280;51107;47.652;19.016;2023-02-03T13:47:28;100001.66;;;-0.03;100.00
64683;BME280;51107;47.652;19.016;2023-02-03T13:50:03;99998.22;;;-0.02;100.00
64683;BME280;51107;47.652;19.016;2023-02-03T13:52:55;99993.84;;;0.00;100.00
64683;BME280;51107;47.652;19.016;2023-02-03T13:55:38;99983.59;;;0.00;100.00
64683;BME280;51107;47.652;19.016;2023-02-03T13:58:23;99980.38;;;0.12;100.00
64683;BME280;51107;47.652;19.016;2023-02-03T14:05:58;99962.69;;;0.08;100.00
64683;BME280;51107;47.652;19.016;2023-02-03T14:16:41;99949.81;;;0.09;100.00
64683;BME280;51107;47.652;19.016;2023-02-03T14:22:15;99927.44;;;0.13;100.00
64683;BME280;51107;47.652;19.016;2023-02-03T14:24:46;99931.72;;;0.12;100.00
64683;BME280;51107;47.652;19.016;2023-02-03T14:27:23;99926.38;;;0.17;100.00
64683;BME280;51107;47.652;19.016;2023-02-03T14:30:07;99921.00;;;0.22;100.00
64683;BME280;51107;47.652;19.016;2023-02-03T14:32:53;99913.72;;;0.30;100.00
64683;BME280;51107;47.652;19.016;2023-02-03T14:35:35;99908.59;;;0.30;100.00
64683;BME280;51107;47.652;19.016;2023-02-03T14:38:12;99911.66;;;0.37;100.00
64683;BME280;51107;47.652;19.016;2023-02-03T14:54:07;99878.50;;;0.65;100.00
64683;BME280;51107;47.652;19.016;2023-02-03T15:02:26;99872.47;;;0.66;100.00
64683;BME280;51107;47.652;19.016;2023-02-03T15:13:26;99838.59;;;0.76;100.00
64683;BME280;51107;47.652;19.016;2023-02-03T15:15:57;99838.78;;;0.73;100.00
64683;BME280;51107;47.652;19.016;2023-02-03T15:18:30;99824.69;;;0.80;100.00
64683;BME280;51107;47.652;19.016;2023-02-03T15:20:59;99827.03;;;0.84;100.00
64683;BME280;51107;47.652;19.016;2023-02-03T15:23:37;99826.03;;;0.87;100.00
64683;BME280;51107;47.652;19.016;2023-02-03T15:26:14;99812.28;;;0.88;100.00
64683;BME280;51107;47.652;19.016;2023-02-03T15:28:43;99812.13;;;0.91;100.00
64683;BME280;51107;47.652;19.016;2023-02-03T15:31:33;99808.19;;;1.00;100.00
64683;BME280;51107;47.652;19.016;2023-02-03T15:34:20;99801.53;;;1.12;100.00
64683;BME280;51107;47.652;19.016;2023-02-03T15:36:53;99797.41;;;1.09;100.00
64683;BME280;51107;47.652;19.016;2023-02-03T15:41:55;99779.16;;;1.14;100.00